createdAt,value
2019-06-26T00:02:03.497Z,15.60
2019-06-26T00:04:31.839Z,14.77
2019-06-26T00:07:00.190Z,13.45
2019-06-26T00:09:28.540Z,12.93
2019-06-26T00:14:32.197Z,14.20
2019-06-26T00:17:00.554Z,13.30
2019-06-26T00:19:29.813Z,14.20
2019-06-26T00:22:00.160Z,13.63
2019-06-26T00:24:28.502Z,13.60
2019-06-26T00:27:20.212Z,14.60
2019-06-26T00:32:26.671Z,15.65
2019-06-26T00:34:56.036Z,15.80
2019-06-26T00:37:26.307Z,16.10
2019-06-26T00:39:54.660Z,16.13
2019-06-26T00:47:34.757Z,17.87
2019-06-26T00:50:03.136Z,15.32
2019-06-26T00:52:31.480Z,15.50
2019-06-26T00:57:34.180Z,14.90
2019-06-26T01:02:36.805Z,15.90
2019-06-26T01:05:07.104Z,14.00
2019-06-26T01:07:35.511Z,13.52
2019-06-26T01:10:05.214Z,14.02
2019-06-26T01:12:33.569Z,14.00
2019-06-26T01:15:01.948Z,13.20
2019-06-26T01:17:30.302Z,13.80
2019-06-26T01:19:58.720Z,13.00
2019-06-26T01:22:27.126Z,13.63
2019-06-26T01:24:55.465Z,13.10
2019-06-26T01:27:23.828Z,13.10
2019-06-26T01:29:52.207Z,14.20
2019-06-26T01:32:20.560Z,13.90
2019-06-26T01:37:23.213Z,16.02
2019-06-26T01:39:51.602Z,15.53
2019-06-26T01:42:19.948Z,15.17
2019-06-26T01:44:49.237Z,16.40
2019-06-26T01:49:53.839Z,17.45
2019-06-26T01:52:22.192Z,17.97
2019-06-26T01:54:58.641Z,16.77
2019-06-26T01:57:26.988Z,15.13
2019-06-26T01:59:55.349Z,16.07
2019-06-26T02:02:25.654Z,15.90
2019-06-26T02:05:04.044Z,14.83
2019-06-26T02:07:32.410Z,14.30
2019-06-26T02:10:00.779Z,11.67
2019-06-26T02:12:30.033Z,14.90
2019-06-26T02:15:01.644Z,15.00
2019-06-26T02:17:29.975Z,12.90
2019-06-26T02:19:59.285Z,13.23
2019-06-26T02:22:27.657Z,14.97
2019-06-26T02:25:02.864Z,14.67
2019-06-26T02:27:31.269Z,14.60
2019-06-26T02:29:59.587Z,14.33
2019-06-26T02:32:27.945Z,14.27
2019-06-26T02:34:58.287Z,14.80
2019-06-26T02:37:26.654Z,14.43
2019-06-26T02:40:03.020Z,16.53
2019-06-26T02:42:31.374Z,16.23
2019-06-26T02:44:59.752Z,15.93
2019-06-26T02:47:28.104Z,17.50
2019-06-26T02:49:56.476Z,16.95
2019-06-26T02:52:25.754Z,19.77
2019-06-26T02:54:56.053Z,17.90
2019-06-26T02:57:26.305Z,16.93
2019-06-26T03:00:12.330Z,16.50
2019-06-26T03:02:41.604Z,17.00
2019-06-26T03:05:10.933Z,16.50
2019-06-26T03:07:39.289Z,15.80
2019-06-26T03:10:11.067Z,15.70
2019-06-26T03:12:39.424Z,16.40
2019-06-26T03:17:54.666Z,15.60
2019-06-26T03:20:25.545Z,14.87
2019-06-26T03:23:13.255Z,15.27
2019-06-26T03:25:41.621Z,14.40
2019-06-26T03:28:09.981Z,14.90
2019-06-26T03:30:38.351Z,17.33
2019-06-26T03:33:21.649Z,16.33
2019-06-26T03:38:24.292Z,19.00
2019-06-26T03:40:53.645Z,17.33
2019-06-26T03:48:31.447Z,17.10
2019-06-26T03:50:59.832Z,17.60
2019-06-26T03:53:28.201Z,15.60
2019-06-26T03:55:57.546Z,14.60
2019-06-26T03:58:25.896Z,14.90
2019-06-26T04:00:54.266Z,15.57
2019-06-26T04:03:22.612Z,15.20
2019-06-26T04:08:26.097Z,16.58
2019-06-26T04:10:54.477Z,30.30
2019-06-26T04:13:23.753Z,17.23
2019-06-26T04:15:53.092Z,16.20
2019-06-26T04:18:25.642Z,16.07
2019-06-26T04:20:55.994Z,16.07
2019-06-26T04:23:26.261Z,13.60
2019-06-26T04:25:54.621Z,15.60
2019-06-26T04:28:24.889Z,14.57
2019-06-26T04:33:27.523Z,14.90
2019-06-26T04:35:55.925Z,13.50
2019-06-26T04:38:24.349Z,13.00
2019-06-26T04:40:52.701Z,13.00
2019-06-26T04:43:21.056Z,13.90
2019-06-26T04:45:58.162Z,12.57
2019-06-26T04:48:17.782Z,14.60
2019-06-26T04:50:46.146Z,14.63
2019-06-26T04:55:48.817Z,13.25
2019-06-26T04:58:17.199Z,13.47
2019-06-26T05:03:19.873Z,13.00
2019-06-26T05:05:48.231Z,12.27
2019-06-26T05:08:16.581Z,12.67
2019-06-26T05:10:44.931Z,11.80
2019-06-26T05:13:13.282Z,11.73
2019-06-26T05:15:41.624Z,13.98
2019-06-26T05:18:09.983Z,11.97
2019-06-26T05:20:38.314Z,10.80
2019-06-26T05:23:07.640Z,9.90
2019-06-26T05:25:36.015Z,11.40
2019-06-26T05:28:07.329Z,10.18
2019-06-26T05:33:07.064Z,11.20
2019-06-26T05:35:35.532Z,10.80
2019-06-26T05:38:03.769Z,12.27
2019-06-26T05:40:32.110Z,12.00
2019-06-26T05:43:00.457Z,12.30
2019-06-26T05:48:10.001Z,12.30
2019-06-26T05:50:38.350Z,11.10
2019-06-26T05:53:09.773Z,11.67
2019-06-26T05:58:14.412Z,12.13
2019-06-26T06:00:42.775Z,10.83
2019-06-26T06:03:12.309Z,11.00
2019-06-26T06:05:40.656Z,10.60
2019-06-26T06:08:09.004Z,10.68
2019-06-26T06:10:37.365Z,10.73
2019-06-26T06:13:05.748Z,10.77
2019-06-26T06:15:38.438Z,10.43
2019-06-26T06:18:06.761Z,10.77
2019-06-26T06:20:35.908Z,9.73
2019-06-26T06:23:06.238Z,9.77
2019-06-26T06:25:34.600Z,9.13
2019-06-26T06:28:04.122Z,9.67
2019-06-26T06:33:06.831Z,9.20
2019-06-26T06:35:35.164Z,8.50
2019-06-26T06:38:03.530Z,9.00
2019-06-26T06:40:31.868Z,8.83
2019-06-26T06:43:01.208Z,8.30
2019-06-26T06:45:32.873Z,8.97
2019-06-26T06:51:07.646Z,8.17
2019-06-26T06:53:35.998Z,8.90
2019-06-26T06:56:10.326Z,9.33
2019-06-26T06:58:38.711Z,9.40
2019-06-26T07:01:07.090Z,9.20
2019-06-26T07:03:35.426Z,9.70
2019-06-26T07:06:03.793Z,8.93
2019-06-26T07:08:35.867Z,9.30
2019-06-26T07:11:04.279Z,9.52
2019-06-26T07:13:51.946Z,8.70
2019-06-26T07:16:20.320Z,9.90
2019-06-26T07:18:52.319Z,8.20
2019-06-26T07:24:05.006Z,8.88
2019-06-26T07:26:45.701Z,8.07
2019-06-26T07:29:21.776Z,8.10
2019-06-26T07:31:51.044Z,8.30
2019-06-26T07:36:57.693Z,7.95
2019-06-26T07:39:26.032Z,8.47
2019-06-26T07:41:54.375Z,8.30
2019-06-26T07:44:22.726Z,9.00
2019-06-26T07:49:25.449Z,7.90
2019-06-26T07:51:57.102Z,7.70
2019-06-26T07:54:25.548Z,8.00
2019-06-26T07:56:53.792Z,8.20
2019-06-26T07:59:23.040Z,8.20
2019-06-26T08:01:56.168Z,7.63
2019-06-26T08:04:24.522Z,8.10
2019-06-26T08:06:52.902Z,7.20
2019-06-26T08:09:22.219Z,7.90
2019-06-26T08:11:50.506Z,8.30
2019-06-26T08:14:22.178Z,9.40
2019-06-26T08:16:51.472Z,8.47
2019-06-26T08:19:19.830Z,8.43
2019-06-26T08:21:48.188Z,7.80
2019-06-26T08:24:18.488Z,8.40
2019-06-26T08:26:47.828Z,8.57
2019-06-26T08:29:17.073Z,7.90
2019-06-26T08:31:46.407Z,8.93
2019-06-26T08:34:20.583Z,8.20
2019-06-26T08:39:25.256Z,8.15
2019-06-26T08:41:53.600Z,7.10
2019-06-26T08:44:21.948Z,7.80
2019-06-26T08:49:29.797Z,7.93
2019-06-26T08:54:32.388Z,8.43
2019-06-26T08:57:00.750Z,7.70
2019-06-26T08:59:30.006Z,8.40
2019-06-26T09:01:59.336Z,8.50
2019-06-26T09:04:27.684Z,9.27
2019-06-26T09:06:56.032Z,8.40
2019-06-26T09:09:24.376Z,8.45
2019-06-26T09:11:54.629Z,8.50
2019-06-26T09:14:22.972Z,8.60
2019-06-26T09:16:51.329Z,9.00
2019-06-26T09:22:14.321Z,9.55
2019-06-26T09:24:42.642Z,8.90
2019-06-26T09:27:15.327Z,8.50
2019-06-26T09:29:51.241Z,8.50
2019-06-26T09:32:20.571Z,8.27
2019-06-26T09:37:25.543Z,8.90
2019-06-26T09:42:28.125Z,8.80
2019-06-26T09:47:31.197Z,8.23
2019-06-26T09:50:21.099Z,7.30
2019-06-26T09:52:50.450Z,7.40
2019-06-26T09:55:21.667Z,7.50
2019-06-26T09:57:50.037Z,7.73
2019-06-26T10:00:23.109Z,6.90
2019-06-26T10:03:21.559Z,7.07
2019-06-26T10:05:53.864Z,7.28
2019-06-26T10:08:22.833Z,7.62
2019-06-26T10:10:51.179Z,7.90
2019-06-26T10:13:21.451Z,6.93
2019-06-26T10:15:49.757Z,6.40
2019-06-26T10:18:22.147Z,6.10
2019-06-26T10:20:50.485Z,5.55
2019-06-26T10:23:18.825Z,6.72
2019-06-26T10:26:05.440Z,6.55
2019-06-26T10:28:33.797Z,5.75
2019-06-26T10:33:37.062Z,6.20
2019-06-26T10:36:05.403Z,6.30
2019-06-26T10:38:34.570Z,6.15
2019-06-26T10:41:06.843Z,6.72
2019-06-26T10:43:35.190Z,6.80
2019-06-26T10:46:03.570Z,6.55
2019-06-26T10:48:32.804Z,4.93
2019-06-26T10:51:01.160Z,6.80
2019-06-26T10:53:30.446Z,6.20
2019-06-26T10:56:02.595Z,5.72
2019-06-26T10:58:31.210Z,6.57
2019-06-26T11:01:03.333Z,5.85
2019-06-26T11:03:32.569Z,6.45
2019-06-26T11:06:02.826Z,6.50
2019-06-26T11:08:31.190Z,5.93
2019-06-26T11:11:00.545Z,6.65
2019-06-26T11:13:28.840Z,5.82
2019-06-26T11:18:34.593Z,5.45
2019-06-26T11:23:37.366Z,5.25
2019-06-26T11:26:05.738Z,5.40
2019-06-26T11:28:34.081Z,5.22
2019-06-26T11:31:07.192Z,5.40
2019-06-26T11:33:35.537Z,5.12
2019-06-26T11:36:03.910Z,5.57
2019-06-26T11:38:32.248Z,4.78
2019-06-26T11:41:10.935Z,4.95
2019-06-26T11:43:39.297Z,5.05
2019-06-26T11:46:07.632Z,5.20
2019-06-26T11:48:35.982Z,5.22
2019-06-26T11:51:04.345Z,6.40
2019-06-26T11:53:32.686Z,6.43
2019-06-26T11:56:08.396Z,5.90
2019-06-26T11:58:36.686Z,6.15
2019-06-26T12:01:05.033Z,6.30
2019-06-26T12:03:33.376Z,6.12
2019-06-26T12:06:15.181Z,5.87
2019-06-26T12:08:30.086Z,6.00
2019-06-26T12:10:58.439Z,5.82
2019-06-26T12:13:26.794Z,5.60
2019-06-26T12:15:56.045Z,6.30
2019-06-26T12:18:24.385Z,5.80
2019-06-26T12:20:53.218Z,6.15
2019-06-26T12:23:21.434Z,5.93
2019-06-26T12:28:24.192Z,5.95
2019-06-26T12:30:52.556Z,5.50
2019-06-26T12:33:21.801Z,5.12
2019-06-26T12:35:52.134Z,5.78
2019-06-26T12:38:22.427Z,6.18
2019-06-26T12:40:52.677Z,5.78
2019-06-26T12:43:21.055Z,4.90
2019-06-26T12:46:19.981Z,6.20
2019-06-26T12:48:49.313Z,6.03
2019-06-26T12:51:18.562Z,5.30
2019-06-26T12:53:51.385Z,6.32
2019-06-26T12:56:21.633Z,5.80
2019-06-26T12:58:50.940Z,6.07
2019-06-26T13:01:25.082Z,6.12
2019-06-26T13:03:50.593Z,6.15
2019-06-26T13:08:53.179Z,5.83
2019-06-26T13:11:21.549Z,5.68
2019-06-26T13:14:03.302Z,5.55
2019-06-26T13:16:31.521Z,5.82
2019-06-26T13:18:59.825Z,5.47
2019-06-26T13:21:28.215Z,5.50
2019-06-26T13:23:57.539Z,6.00
2019-06-26T13:26:25.882Z,6.20
2019-06-26T13:28:55.143Z,5.68
2019-06-26T13:31:23.569Z,5.22
2019-06-26T13:33:51.909Z,5.62
2019-06-26T13:36:20.252Z,5.62
2019-06-26T13:38:52.499Z,5.85
2019-06-26T13:43:59.938Z,6.47
2019-06-26T13:46:25.417Z,6.28
2019-06-26T13:48:59.328Z,6.55
2019-06-26T13:51:27.683Z,6.05
2019-06-26T13:53:56.058Z,6.20
2019-06-26T13:56:24.401Z,6.37
2019-06-26T13:59:06.509Z,5.90
2019-06-26T14:04:09.613Z,6.10
2019-06-26T14:06:37.961Z,6.20
2019-06-26T14:14:22.289Z,6.80
2019-06-26T14:19:26.634Z,6.00
2019-06-26T14:22:02.038Z,6.47
2019-06-26T14:24:30.401Z,6.07
2019-06-26T14:26:58.756Z,6.65
2019-06-26T14:29:27.114Z,6.70
2019-06-26T14:31:55.464Z,5.93
2019-06-26T14:34:26.971Z,5.55
2019-06-26T14:36:56.154Z,6.25
2019-06-26T14:39:24.501Z,6.75
2019-06-26T14:41:52.868Z,5.57
2019-06-26T14:44:23.152Z,6.25
2019-06-26T14:46:55.415Z,6.55
2019-06-26T14:49:23.792Z,7.07
2019-06-26T14:51:52.177Z,7.20
2019-06-26T14:54:20.535Z,6.55
2019-06-26T14:56:48.890Z,6.47
2019-06-26T14:59:17.286Z,6.25
2019-06-26T15:01:45.630Z,6.03
2019-06-26T15:04:21.225Z,6.20
2019-06-26T15:06:53.382Z,6.47
2019-06-26T15:09:21.752Z,7.30
2019-06-26T15:11:50.111Z,6.32
2019-06-26T15:14:19.448Z,6.47
2019-06-26T15:16:50.947Z,7.05
2019-06-26T15:19:22.837Z,6.70
2019-06-26T15:22:02.541Z,6.20
2019-06-26T15:24:30.920Z,5.90
2019-06-26T15:26:59.292Z,5.90
2019-06-26T15:29:27.661Z,6.57
2019-06-26T15:31:58.000Z,6.40
2019-06-26T15:34:26.428Z,5.70
2019-06-26T15:37:15.293Z,6.30
2019-06-26T15:42:21.938Z,6.55
2019-06-26T15:44:50.318Z,5.82
2019-06-26T15:47:21.814Z,6.57
2019-06-26T15:49:50.238Z,6.80
2019-06-26T15:52:21.858Z,6.43
2019-06-26T15:57:24.415Z,6.43
2019-06-26T16:02:32.145Z,6.18
2019-06-26T16:05:11.482Z,7.70
2019-06-26T16:07:39.856Z,6.55
2019-06-26T16:10:08.177Z,6.00
2019-06-26T16:12:36.540Z,5.68
2019-06-26T16:15:10.986Z,6.53
2019-06-26T16:17:40.252Z,6.62
2019-06-26T16:20:08.604Z,6.90
2019-06-26T16:22:36.947Z,6.40
2019-06-26T16:25:06.250Z,6.60
2019-06-26T16:27:34.592Z,6.43
2019-06-26T16:32:42.371Z,7.18
2019-06-26T16:35:13.848Z,7.30
2019-06-26T16:37:44.100Z,7.57
2019-06-26T16:40:22.207Z,8.10
2019-06-26T16:42:55.288Z,15.70
2019-06-26T16:45:23.639Z,16.65
2019-06-26T16:47:53.902Z,11.40
2019-06-26T16:50:22.252Z,7.50
2019-06-26T16:52:50.608Z,7.77
2019-06-26T16:55:22.013Z,8.00
2019-06-26T16:57:50.417Z,10.23
2019-06-26T17:00:22.334Z,16.05
2019-06-26T17:03:20.725Z,14.07
2019-06-26T17:05:54.075Z,10.00
2019-06-26T17:08:34.773Z,7.20
2019-06-26T17:13:39.567Z,9.95
2019-06-26T17:16:07.974Z,7.33
2019-06-26T17:18:39.908Z,8.83
2019-06-26T17:21:12.704Z,7.83
2019-06-26T17:23:41.107Z,8.03
2019-06-26T17:26:25.438Z,8.20
2019-06-26T17:28:53.799Z,7.33
2019-06-26T17:31:25.266Z,7.70
2019-06-26T17:33:54.537Z,7.30
2019-06-26T17:36:23.526Z,7.80
2019-06-26T17:38:51.901Z,6.87
2019-06-26T17:41:22.510Z,6.80
2019-06-26T17:43:50.864Z,7.90
2019-06-26T17:46:19.270Z,7.40
2019-06-26T17:57:41.913Z,7.40
2019-06-26T18:00:10.253Z,7.70
2019-06-26T18:05:12.944Z,8.75
2019-06-26T18:07:42.273Z,9.43
2019-06-26T18:10:10.846Z,8.60
2019-06-26T18:15:13.528Z,10.95
2019-06-26T18:17:42.132Z,9.30
2019-06-26T18:20:10.475Z,10.07
2019-06-26T18:22:45.032Z,9.70
2019-06-26T18:25:16.471Z,9.10
2019-06-26T18:27:44.894Z,8.10
2019-06-26T18:30:13.264Z,8.67
2019-06-26T18:32:43.130Z,9.20
2019-06-26T18:35:11.490Z,12.10
2019-06-26T18:38:01.346Z,12.05
2019-06-26T18:43:04.025Z,9.77
2019-06-26T18:45:33.335Z,13.10
2019-06-26T18:48:01.729Z,16.10
2019-06-26T18:50:58.204Z,18.53
2019-06-26T18:56:00.949Z,16.12
2019-06-26T18:58:57.493Z,11.67
2019-06-26T19:01:30.507Z,11.37
2019-06-26T19:06:42.601Z,9.98
2019-06-26T19:09:28.430Z,9.70
2019-06-26T19:12:20.131Z,10.13
2019-06-26T19:17:30.925Z,10.65
2019-06-26T19:20:00.113Z,10.60
2019-06-26T19:22:28.472Z,10.60
2019-06-26T19:24:57.752Z,9.47
2019-06-26T19:27:28.948Z,10.43
2019-06-26T19:32:37.167Z,10.90
2019-06-26T19:37:36.365Z,9.93
2019-06-26T19:40:28.403Z,9.30
2019-06-26T19:43:27.739Z,9.60
2019-06-26T19:45:56.120Z,9.30
2019-06-26T19:48:28.821Z,11.77
2019-06-26T19:53:31.545Z,10.80
2019-06-26T19:58:34.270Z,11.60
2019-06-26T20:01:02.625Z,11.30
2019-06-26T20:03:31.002Z,10.97
2019-06-26T20:05:59.348Z,12.40
2019-06-26T20:08:27.719Z,13.10
2019-06-26T20:10:56.068Z,12.33
2019-06-26T20:13:24.428Z,12.40
2019-06-26T20:15:52.796Z,13.53
2019-06-26T20:20:56.209Z,13.50
2019-06-26T20:23:24.569Z,14.05
2019-06-26T20:25:52.926Z,12.70
2019-06-26T20:28:21.285Z,13.60
2019-06-26T20:30:49.641Z,12.70
2019-06-26T20:38:31.523Z,13.57
2019-06-26T20:40:59.865Z,13.77
2019-06-26T20:43:35.594Z,12.50
2019-06-26T20:46:03.913Z,13.23
2019-06-26T20:48:32.305Z,13.30
2019-06-26T20:51:00.706Z,13.43
2019-06-26T20:53:29.119Z,12.70
2019-06-26T20:55:57.470Z,14.37
2019-06-26T20:58:25.833Z,14.80
2019-06-26T21:00:54.190Z,31.63
2019-06-26T21:03:22.528Z,26.30
2019-06-26T21:05:50.897Z,26.43
2019-06-26T21:08:19.294Z,21.70
2019-06-26T21:10:47.652Z,13.63
2019-06-26T21:13:15.998Z,12.97
2019-06-26T21:15:44.370Z,13.87
2019-06-26T21:18:12.713Z,13.10
2019-06-26T21:20:41.080Z,13.30
2019-06-26T21:23:18.489Z,15.00
2019-06-26T21:25:37.778Z,14.20
2019-06-26T21:30:40.356Z,15.15
2019-06-26T21:33:08.702Z,13.80
2019-06-26T21:35:37.061Z,13.97
2019-06-26T21:38:05.405Z,13.57
2019-06-26T21:40:33.756Z,14.40
2019-06-26T21:45:38.481Z,13.75
2019-06-26T21:48:06.824Z,12.33
2019-06-26T21:50:35.185Z,12.40
2019-06-26T21:55:37.778Z,13.02
2019-06-26T22:03:21.713Z,13.48
2019-06-26T22:05:50.075Z,14.00
2019-06-26T22:08:19.379Z,13.90
2019-06-26T22:13:22.323Z,14.45
2019-06-26T22:15:50.741Z,14.35
2019-06-26T22:20:55.376Z,14.48
2019-06-26T22:23:23.718Z,12.93
2019-06-26T22:25:52.091Z,13.60
2019-06-26T22:28:20.440Z,12.97
2019-06-26T22:30:48.818Z,14.30
2019-06-26T22:33:17.262Z,14.03
2019-06-26T22:35:45.624Z,13.50
2019-06-26T22:38:14.021Z,12.70
2019-06-26T22:40:42.381Z,12.27
2019-06-26T22:43:10.818Z,13.20
2019-06-26T22:45:39.165Z,12.73
2019-06-26T22:48:07.519Z,12.63
2019-06-26T22:50:35.855Z,13.50
2019-06-26T22:53:04.224Z,13.23
2019-06-26T22:55:32.578Z,12.53
2019-06-26T22:58:00.949Z,14.00
2019-06-26T23:00:29.294Z,12.83
2019-06-26T23:02:57.674Z,13.70
2019-06-26T23:05:26.030Z,13.30
2019-06-26T23:10:29.654Z,13.93
2019-06-26T23:12:58.011Z,12.80
2019-06-26T23:15:26.374Z,13.20
2019-06-26T23:17:54.762Z,12.27
2019-06-26T23:20:26.287Z,14.43
2019-06-26T23:22:54.639Z,13.47
2019-06-26T23:27:59.210Z,13.48
2019-06-26T23:30:38.873Z,11.93
2019-06-26T23:33:07.222Z,13.33
2019-06-26T23:35:52.230Z,12.80
2019-06-26T23:41:05.526Z,13.38
2019-06-26T23:43:33.961Z,13.17
2019-06-26T23:46:02.283Z,13.57
2019-06-26T23:48:30.648Z,12.57
2019-06-26T23:50:58.999Z,13.07
2019-06-26T23:53:27.377Z,12.90
2019-06-26T23:55:55.737Z,12.80
2019-06-26T23:58:24.119Z,13.57
